Time;durP1;ratioP1;P1;durP2;ratioP2;P2;SDS_P1;SDS_P2;PMS_P1;PMS_P2;Temp;Humidity;BMP_temperature;BMP_pressure;BME280_temperature;BME280_humidity;BME280_pressure;Samples;Min_cycle;Max_cycle;Signal;HPM_P1;HPM_P2
2021/04/20 00:00:12;;;;;;;6.80;5.15;;;10.60;96.30;;;10.23;65.57;101254.56;4169668;28;20572;-64
2021/04/20 00:02:13;;;;;;;8.40;6.00;;;10.70;97.00;;;10.28;66.41;101262.03;4169503;28;20088;-65
2021/04/20 00:04:14;;;;;;;11.23;5.95;;;10.60;97.50;;;10.23;67.45;101262.47;4167194;28;20029;-64
2021/04/20 00:06:15;;;;;;;8.38;5.97;;;10.60;97.80;;;10.31;66.04;101264.38;4162127;28;20014;-64
2021/04/20 00:08:16;;;;;;;8.63;6.40;;;10.60;97.40;;;10.31;65.25;101262.59;4169534;28;20440;-64
2021/04/20 00:10:20;;;;;;;9.68;6.80;;;10.60;97.20;;;10.22;64.94;101259.97;4169425;28;20026;-64
2021/04/20 00:12:21;;;;;;;9.20;6.63;;;10.60;96.70;;;10.32;64.46;101268.69;4169619;28;20065;-64
2021/04/20 00:14:23;;;;;;;12.32;7.20;;;10.60;96.60;;;10.19;64.55;101258.44;4169556;28;20036;-64
2021/04/20 00:16:23;;;;;;;10.45;6.60;;;10.50;96.50;;;10.16;64.55;101257.88;4169528;28;20033;-64
2021/04/20 00:18:25;;;;;;;11.25;7.35;;;10.60;96.60;;;10.16;65.19;101247.34;4167960;28;20037;-64
2021/04/20 00:20:26;;;;;;;8.85;6.40;;;10.50;96.90;;;10.16;66.57;101255.25;4169202;28;20040;-64
2021/04/20 00:22:27;;;;;;;7.90;5.47;;;10.50;97.60;;;10.14;67.05;101263.31;4169435;28;20029;-64
2021/04/20 00:24:27;;;;;;;8.05;6.05;;;10.50;97.90;;;10.22;67.19;101255.53;4168126;28;20105;-64
2021/04/20 00:26:29;;;;;;;7.32;6.10;;;10.40;98.40;;;10.18;67.49;101255.97;4168589;28;20552;-64
2021/04/20 00:28:30;;;;;;;10.45;7.00;;;10.40;98.50;;;10.04;68.52;101259.81;4169396;28;20026;-64
2021/04/20 00:30:31;;;;;;;13.63;7.72;;;10.40;98.80;;;9.95;68.21;101247.47;4169221;28;20056;-64
2021/04/20 00:32:33;;;;;;;7.50;5.82;;;10.30;98.80;;;9.89;68.08;101256.75;4167974;28;20026;-64
2021/04/20 00:34:34;;;;;;;10.20;6.05;;;10.20;98.70;;;10.03;66.81;101253.69;4168119;28;20509;-64
2021/04/20 00:36:35;;;;;;;8.48;6.50;;;10.20;98.10;;;9.92;66.89;101253.00;4169389;28;20113;-64
2021/04/20 00:38:37;;;;;;;10.45;5.90;;;10.20;98.40;;;9.93;68.63;101249.41;4169014;28;20029;-64
2021/04/20 00:40:38;;;;;;;10.57;6.35;;;10.20;98.90;;;9.82;69.55;101241.66;4169039;28;20021;-64
2021/04/20 00:42:57;;;;;;;11.32;6.68;;;10.10;99.50;;;9.77;68.11;101234.16;4168836;28;20025;-64
2021/04/20 00:44:58;;;;;;;9.55;5.88;;;10.00;99.10;;;9.79;68.46;101240.16;4151352;28;20500;-64
2021/04/20 00:47:01;;;;;;;7.57;5.85;;;10.10;99.30;;;9.80;68.98;101236.53;4184258;28;20024;-64
2021/04/20 00:49:03;;;;;;;8.30;5.78;;;10.00;99.70;;;9.74;69.39;101234.44;4165577;28;20032;-64
2021/04/20 00:51:05;;;;;;;8.73;6.32;;;10.00;99.90;;;9.61;70.17;101238.31;4167664;28;20464;-64
2021/04/20 00:53:08;;;;;;;10.27;6.03;;;10.00;99.90;;;9.60;71.08;101240.13;4167858;28;20082;-64
2021/04/20 00:55:10;;;;;;;9.10;6.00;;;9.90;99.90;;;9.65;70.41;101237.91;4151285;28;20508;-64
2021/04/20 00:57:11;;;;;;;8.55;6.25;;;9.90;99.90;;;9.63;70.99;101234.56;4167514;28;20033;-64
2021/04/20 00:59:13;;;;;;;7.90;5.78;;;9.90;99.90;;;9.57;70.99;101229.03;4168809;28;20060;-64
2021/04/20 01:01:14;;;;;;;9.05;6.38;;;9.80;99.90;;;9.55;70.90;101233.59;4168794;28;20407;-64
2021/04/20 01:03:16;;;;;;;9.45;5.70;;;9.80;99.90;;;9.43;71.35;101233.75;4167616;28;20033;-64
2021/04/20 01:05:33;;;;;;;9.48;6.18;;;9.80;99.90;;;9.40;70.75;101227.91;4164896;28;20084;-64
2021/04/20 01:07:34;;;;;;;8.48;6.07;;;9.70;99.90;;;9.37;71.25;101218.50;4167506;28;20128;-64
2021/04/20 01:09:36;;;;;;;10.82;6.68;;;9.70;99.90;;;9.42;71.48;101232.06;4168716;28;20025;-64
2021/04/20 01:11:40;;;;;;;8.23;5.97;;;9.70;99.90;;;9.44;71.49;101231.91;4167526;28;20033;-64
2021/04/20 01:13:40;;;;;;;8.90;6.25;;;9.70;99.90;;;9.51;72.32;101225.16;4167222;28;20026;-64
2021/04/20 01:15:49;;;;;;;8.60;6.07;;;9.70;99.90;;;9.45;71.79;101221.25;4167153;28;20066;-64
2021/04/20 01:17:50;;;;;;;8.45;5.95;;;9.80;99.90;;;9.47;72.66;101213.22;4167246;28;20142;-64
2021/04/20 01:19:58;;;;;;;7.97;5.65;;;9.80;99.90;;;9.45;73.17;101221.25;4167040;28;20029;-64
2021/04/20 01:22:01;;;;;;;6.93;5.30;;;9.80;99.90;;;9.42;73.25;101226.81;4167436;28;20104;-64
2021/04/20 01:24:08;;;;;;;9.93;5.75;;;9.80;99.90;;;9.47;73.23;101228.19;4167452;28;20037;-64
2021/04/20 01:26:11;;;;;;;8.70;6.05;;;9.80;99.90;;;9.51;72.59;101219.88;4168603;28;20481;-64
2021/04/20 01:28:12;;;;;;;10.57;5.80;;;9.80;99.90;;;9.50;72.82;101210.31;4167184;28;20107;-64
2021/04/20 01:30:13;;;;;;;10.07;6.47;;;9.80;99.90;;;9.52;73.32;101216.28;4183859;28;20416;-64
2021/04/20 01:32:14;;;;;;;8.73;6.43;;;9.80;99.90;;;9.55;73.23;101215.16;4168454;28;20025;-64
2021/04/20 01:34:16;;;;;;;10.07;6.00;;;9.80;99.90;;;9.47;74.21;101212.41;4168346;28;20091;-64
2021/04/20 01:36:21;;;;;;;9.90;6.35;;;9.90;99.90;;;9.48;73.98;101211.41;4167009;28;20361;-64
2021/04/20 01:38:22;;;;;;;6.65;5.68;;;9.90;99.90;;;9.53;74.17;101202.13;4167195;28;20065;-64
2021/04/20 01:40:24;;;;;;;7.43;6.00;;;9.80;99.90;;;9.68;73.53;101213.91;4167180;28;20471;-64
2021/04/20 01:42:25;;;;;;;9.15;6.15;;;9.90;99.90;;;9.74;72.52;101205.47;4167357;28;20021;-64
2021/04/20 01:44:26;;;;;;;7.82;5.68;;;9.90;99.90;;;9.65;73.06;101201.03;4167181;28;20033;-64
2021/04/20 01:46:27;;;;;;;8.40;6.10;;;9.90;99.90;;;9.61;73.25;101198.81;4167420;28;20515;-64
2021/04/20 01:48:28;;;;;;;10.27;5.78;;;9.90;99.90;;;9.57;73.89;101202.69;4168379;28;20033;-64
2021/04/20 01:50:29;;;;;;;6.30;5.03;;;9.90;99.90;;;9.51;74.70;101200.59;4166869;28;20026;-64
2021/04/20 01:52:30;;;;;;;9.13;5.97;;;9.90;99.90;;;9.48;74.86;101196.44;4168411;28;20374;-64
2021/04/20 01:54:32;;;;;;;8.07;5.70;;;9.80;99.90;;;9.48;75.08;101196.44;4167149;28;20037;-64
2021/04/20 01:56:34;;;;;;;11.77;7.72;;;9.90;99.90;;;9.52;72.07;101171.50;4167056;28;20033;-64
2021/04/20 01:58:38;;;;;;;7.60;5.93;;;9.90;99.90;;;9.66;73.89;101194.78;4154562;28;20124;-64
2021/04/20 02:00:41;;;;;;;9.23;6.13;;;10.00;99.90;;;9.70;74.29;101198.81;4183393;28;20036;-64
2021/04/20 02:02:43;;;;;;;7.60;5.90;;;9.90;99.90;;;9.78;74.97;101200.75;4150868;28;20505;-64
2021/04/20 02:04:43;;;;;;;9.18;6.32;;;10.00;99.90;;;9.72;75.11;101199.50;4161141;28;20043;-64
2021/04/20 02:06:45;;;;;;;9.32;5.75;;;10.00;99.90;;;9.65;74.73;101198.38;4166857;28;20038;-64
2021/04/20 02:08:48;;;;;;;9.98;5.97;;;10.00;99.90;;;9.60;74.68;101203.25;4166785;28;20025;-64
2021/04/20 02:10:50;;;;;;;7.97;5.85;;;9.90;99.90;;;9.61;75.63;101202.28;4189598;28;20039;-64
2021/04/20 02:12:51;;;;;;;8.00;6.63;;;9.90;99.90;;;9.47;76.49;101186.88;4167015;28;20120;-64
2021/04/20 02:14:52;;;;;;;8.75;6.75;;;9.90;99.90;;;9.42;76.14;101191.72;4164607;28;20566;-64
2021/04/20 02:16:54;;;;;;;8.88;6.68;;;9.80;99.90;;;9.38;75.83;101191.16;4167248;28;20412;-64
2021/04/20 02:19:05;;;;;;;11.35;7.15;;;9.80;99.90;;;9.37;74.52;101191.31;4156715;28;20034;-64
2021/04/20 02:21:07;;;;;;;7.10;5.85;;;9.80;99.90;;;9.36;75.81;101181.75;4166843;28;20100;-64
2021/04/20 02:23:09;;;;;;;8.13;5.72;;;9.80;99.90;;;9.40;76.36;101181.34;4168050;28;20030;-64
2021/04/20 02:25:14;;;;;;;7.78;5.75;;;9.80;99.90;;;9.39;77.02;101189.38;4167041;28;20026;-64
2021/04/20 02:27:15;;;;;;;10.88;7.57;;;9.70;99.90;;;9.45;75.92;101188.81;4168173;28;20497;-64
2021/04/20 02:29:16;;;;;;;10.30;6.72;;;9.70;99.90;;;9.48;74.40;101190.34;4170190;28;20025;-64
2021/04/20 02:31:17;;;;;;;13.18;6.70;;;9.80;99.90;;;9.59;70.49;101183.13;4171101;28;20443;-64
2021/04/20 02:33:18;;;;;;;10.68;7.00;;;9.80;99.90;;;9.53;71.79;101186.31;4169975;28;20049;-64
2021/04/20 02:35:19;;;;;;;9.07;6.88;;;9.90;99.90;;;9.51;73.58;101183.00;4186303;28;20528;-64
2021/04/20 02:37:20;;;;;;;7.78;6.78;;;9.80;99.90;;;9.44;70.84;101181.88;4169940;28;20109;-64
2021/04/20 02:39:21;;;;;;;10.13;7.10;;;9.80;99.90;;;9.49;71.99;101177.06;4169728;28;20034;-64
2021/04/20 02:41:25;;;;;;;11.18;7.88;;;9.80;99.90;;;9.47;70.91;101178.16;4171211;28;20155;-64
2021/04/20 02:43:27;;;;;;;9.32;6.70;;;9.80;99.90;;;9.39;71.48;101168.31;4153331;28;20029;-64
2021/04/20 02:45:29;;;;;;;8.10;6.45;;;9.80;99.90;;;9.28;72.75;101178.97;4169862;28;20029;-64
2021/04/20 02:47:31;;;;;;;11.32;7.63;;;9.70;99.90;;;9.36;70.71;101171.22;4169658;28;20156;-64
2021/04/20 02:49:31;;;;;;;8.57;7.43;;;9.70;99.90;;;9.40;70.52;101175.25;4169556;28;20032;-64
2021/04/20 02:51:38;;;;;;;11.30;7.35;;;9.70;99.90;;;9.39;71.04;101173.56;4169782;28;20459;-64
2021/04/20 02:53:42;;;;;;;9.60;7.68;;;9.70;99.90;;;9.31;71.54;101170.81;4169703;28;20025;-64
2021/04/20 02:55:44;;;;;;;10.65;7.30;;;9.70;99.90;;;9.02;72.25;101170.75;4169564;28;20103;-64
2021/04/20 02:57:51;;;;;;;9.73;7.90;;;9.50;99.90;;;9.06;72.45;101171.31;4169663;28;20026;-64
2021/04/20 02:59:52;;;;;;;12.18;7.80;;;9.50;99.90;;;9.16;71.74;101172.19;4170662;28;20511;-64
2021/04/20 03:01:54;;;;;;;11.27;7.32;;;9.40;99.90;;;9.16;71.91;101166.91;4169497;28;20436;-65
2021/04/20 03:03:56;;;;;;;10.82;7.68;;;9.40;99.90;;;9.06;72.30;101172.16;4170478;28;20029;-64
2021/04/20 03:06:01;;;;;;;13.68;7.80;;;9.40;99.90;;;9.06;72.90;101172.16;4169306;28;20029;-64
2021/04/20 03:08:06;;;;;;;8.68;7.43;;;9.40;99.90;;;9.01;73.04;101170.91;4164133;28;20022;-64
2021/04/20 03:10:08;;;;;;;;;;;9.30;99.90;;;9.03;73.73;101164.53;4169796;28;20079;-64
2021/04/20 03:12:09;;;;;;;13.00;7.38;;;9.30;99.90;;;8.83;72.71;101161.03;4157041;28;19996;-64
2021/04/20 03:14:10;;;;;;;8.43;7.25;;;9.30;99.90;;;8.82;72.68;101164.63;4170509;28;20026;-64
2021/04/20 03:16:15;;;;;;;10.85;7.78;;;9.20;99.90;;;8.75;73.17;101174.00;4169373;28;20100;-64
2021/04/20 03:18:16;;;;;;;10.70;7.07;;;9.20;99.90;;;8.79;73.12;101170.16;4169232;28;20038;-65
2021/04/20 03:20:19;;;;;;;9.93;7.63;;;9.20;99.90;;;8.69;73.26;101164.00;4170280;28;20040;-64
2021/04/20 03:22:20;;;;;;;11.35;7.47;;;9.10;99.90;;;8.71;73.71;101171.78;4169306;28;20400;-64
2021/04/20 03:24:33;;;;;;;9.45;7.85;;;9.10;99.90;;;8.77;74.15;101177.34;4169213;28;20029;-64
2021/04/20 03:26:39;;;;;;;11.00;7.70;;;9.10;99.90;;;8.67;74.12;101171.22;4170323;28;20420;-64
2021/04/20 03:28:40;;;;;;;7.90;6.65;;;9.10;99.90;;;8.65;74.59;101178.41;4152869;28;20022;-64
2021/04/20 03:30:41;;;;;;;8.68;6.03;;;9.00;99.90;;;8.59;75.02;101162.34;4168880;28;20068;-64
2021/04/20 03:32:58;;;;;;;9.05;6.13;;;9.00;99.90;;;8.65;75.48;101167.06;4168937;28;20555;-64
2021/04/20 03:35:16;;;;;;;11.10;6.90;;;9.00;99.90;;;8.69;76.35;101164.00;4169055;28;20045;-64
2021/04/20 03:37:53;;;;;;;11.30;8.80;;;9.00;99.90;;;8.77;75.33;101166.84;4168818;28;20100;-64
2021/04/20 03:39:58;;;;;;;16.25;8.35;;;9.00;99.90;;;8.77;75.68;101161.56;4159992;28;20404;-64
2021/04/20 03:42:24;;;;;;;12.60;8.45;;;9.10;99.90;;;8.66;75.80;101168.75;4168802;28;20396;-64
2021/04/20 03:44:34;;;;;;;9.15;7.47;;;9.00;99.90;;;8.48;76.18;101160.66;4155821;28;20033;-64
2021/04/20 03:46:41;;;;;;;9.52;7.45;;;8.90;99.90;;;8.45;76.75;101160.91;4168895;28;20037;-64
2021/04/20 03:48:50;;;;;;;9.70;7.45;;;8.90;99.90;;;8.56;76.41;101166.06;4168911;28;20030;-64
2021/04/20 03:51:00;;;;;;;14.35;7.85;;;8.90;99.90;;;8.54;76.90;101164.53;4168726;28;20513;-64
2021/04/20 03:53:05;;;;;;;12.45;9.55;;;8.90;99.90;;;8.49;76.85;101157.03;4168806;28;20025;-64
2021/04/20 03:55:12;;;;;;;11.45;7.72;;;8.90;99.90;;;8.50;76.93;101153.44;4168679;28;20056;-64
2021/04/20 03:57:15;;;;;;;9.13;8.10;;;8.90;99.90;;;8.47;77.55;101151.09;4168631;28;20029;-64
2021/04/20 03:59:19;;;;;;;9.02;7.70;;;8.80;99.90;;;8.51;77.88;101155.09;4168640;28;20117;-64
2021/04/20 04:01:23;;;;;;;13.25;7.65;;;8.80;99.90;;;8.50;78.58;101157.88;4168421;28;20676;-64
2021/04/20 04:03:26;;;;;;;9.88;7.30;;;8.80;99.90;;;8.59;77.99;101162.34;4165302;28;20025;-64
2021/04/20 04:05:29;;;;;;;9.93;8.13;;;8.80;99.90;;;8.57;78.04;101153.75;4169256;28;20096;-64
2021/04/20 04:07:32;;;;;;;8.02;6.95;;;8.90;99.90;;;8.47;78.40;101137.94;4168441;28;20949;-64
2021/04/20 04:09:34;;;;;;;8.20;7.07;;;8.90;99.90;;;8.55;78.64;101156.50;4168568;28;20585;-64
2021/04/20 04:11:38;;;;;;;12.02;8.07;;;8.90;99.90;;;8.53;78.27;101155.81;4168489;28;20032;-64
2021/04/20 04:13:44;;;;;;;7.97;6.70;;;8.90;99.90;;;8.59;78.19;101151.81;4168384;28;20021;-64
2021/04/20 04:15:45;;;;;;;10.48;7.07;;;8.90;99.90;;;8.61;78.03;101152.50;4169727;28;20040;-64
2021/04/20 04:17:49;;;;;;;10.48;7.70;;;8.90;99.90;;;8.55;77.96;101142.50;4168361;28;20029;-64
2021/04/20 04:19:53;;;;;;;9.15;7.35;;;8.90;99.90;;;8.60;78.43;101154.28;4168026;28;20116;-64
2021/04/20 04:22:03;;;;;;;11.55;7.45;;;8.90;99.90;;;8.56;78.30;101146.81;4168330;28;20076;-64
2021/04/20 04:24:06;;;;;;;13.10;8.70;;;8.90;99.90;;;8.52;77.65;101145.41;4168404;28;20428;-64
2021/04/20 04:26:16;;;;;;;14.00;7.97;;;8.90;99.90;;;8.59;76.47;101154.44;4168296;28;20574;-64
2021/04/20 04:28:19;;;;;;;12.95;8.68;;;8.90;99.90;;;8.63;76.91;101154.03;4167922;28;20032;-64
2021/04/20 04:30:23;;;;;;;8.35;6.80;;;9.00;99.90;;;8.56;78.02;101147.66;4168239;28;20108;-64
2021/04/20 04:32:25;;;;;;;10.02;7.38;;;9.00;99.90;;;8.63;77.69;101142.72;4168221;28;20029;-64
2021/04/20 04:34:27;;;;;;;9.20;6.93;;;9.00;99.90;;;8.68;78.19;101143.97;4167761;28;20053;-64
2021/04/20 04:36:28;;;;;;;10.55;8.20;;;9.00;99.90;;;8.66;77.40;101143.25;4168173;28;20026;-64
2021/04/20 04:38:31;;;;;;;10.05;6.85;;;9.00;99.90;;;8.54;77.52;101128.53;4167896;28;20084;-64
2021/04/20 04:40:33;;;;;;;11.57;7.82;;;9.00;99.90;;;8.61;78.20;101134.94;4168066;28;20096;-64
2021/04/20 04:42:35;;;;;;;11.90;7.85;;;9.10;99.90;;;8.73;78.35;101139.13;4167833;28;20460;-64
2021/04/20 04:44:37;;;;;;;13.13;8.35;;;9.10;99.90;;;8.79;78.17;101143.00;4169399;28;20014;-64
2021/04/20 04:46:41;;;;;;;8.98;6.90;;;9.10;99.90;;;8.80;78.88;101135.00;4167898;28;20032;-64
2021/04/20 04:48:42;;;;;;;;;;;9.20;99.90;;;8.80;77.91;101140.25;4168321;28;20029;-64
2021/04/20 04:50:45;;;;;;;8.27;6.90;;;9.10;99.90;;;8.83;77.97;101132.09;4166876;28;19913;-64
2021/04/20 04:52:47;;;;;;;11.80;8.13;;;9.20;99.90;;;8.78;78.65;101131.66;4167939;28;20029;-64
2021/04/20 04:54:48;;;;;;;12.10;7.93;;;9.20;99.90;;;8.71;78.54;101130.53;4167865;28;20104;-64
2021/04/20 04:56:51;;;;;;;15.57;8.15;;;9.10;99.90;;;8.66;78.71;101132.72;4169014;28;20090;-64
2021/04/20 04:58:54;;;;;;;13.35;8.75;;;9.10;99.90;;;8.79;76.98;101141.22;4167515;28;20033;-64
2021/04/20 05:00:57;;;;;;;13.82;9.98;;;9.20;99.90;;;8.81;75.63;101141.91;4156503;28;20032;-64
2021/04/20 05:02:59;;;;;;;13.68;7.65;;;9.20;99.90;;;8.96;75.80;101138.91;4169003;28;20021;-64
2021/04/20 05:05:06;;;;;;;15.45;9.43;;;9.30;99.90;;;8.92;76.11;101134.88;4168740;28;20025;-64
2021/04/20 05:07:08;;;;;;;14.25;8.93;;;9.30;99.90;;;8.96;75.35;101139.72;4168731;28;20061;-64
2021/04/20 05:09:15;;;;;;;12.55;9.38;;;9.30;99.90;;;9.00;74.27;101142.91;4168874;28;20033;-64
2021/04/20 05:11:17;;;;;;;13.43;8.32;;;9.40;99.90;;;9.08;73.89;101145.72;4168689;28;20025;-65
2021/04/20 05:13:18;;;;;;;11.57;8.55;;;9.50;99.90;;;9.16;71.58;101145.84;4167490;28;20107;-64
2021/04/20 05:15:21;;;;;;;12.93;8.40;;;9.50;99.90;;;9.07;73.81;101146.69;4154793;28;20089;-64
2021/04/20 05:17:22;;;;;;;14.88;8.85;;;9.50;99.90;;;9.18;72.50;101147.38;4167631;28;20029;-64
2021/04/20 05:19:34;;;;;;;14.88;9.70;;;9.60;99.90;;;9.27;72.59;101145.72;4167078;28;20037;-64
2021/04/20 05:21:35;;;;;;;12.23;8.98;;;9.60;99.90;;;9.30;72.83;101148.91;4167463;28;20033;-64
2021/04/20 05:23:36;;;;;;;14.57;8.93;;;9.60;99.90;;;9.26;73.26;101142.25;4167671;28;20076;-64
2021/04/20 05:25:37;;;;;;;11.75;9.02;;;9.70;99.90;;;9.19;74.19;101145.59;4168718;28;20436;-64
2021/04/20 05:27:38;;;;;;;16.33;9.38;;;9.60;99.90;;;9.23;75.34;101152.22;4167552;28;20053;-64
2021/04/20 05:29:40;;;;;;;12.70;9.13;;;9.60;99.90;;;9.26;75.09;101149.31;4167200;28;20520;-64
2021/04/20 05:31:42;;;;;;;16.83;9.30;;;9.70;99.90;;;9.32;73.92;101151.41;4168489;28;20025;-64
2021/04/20 05:33:42;;;;;;;14.10;9.60;;;9.70;99.90;;;9.18;74.65;101146.53;4168463;28;20064;-64
2021/04/20 05:35:44;;;;;;;15.02;10.32;;;9.70;99.90;;;9.19;74.89;101149.06;4167071;28;20053;-64
2021/04/20 05:37:46;;;;;;;14.15;10.35;;;9.70;99.90;;;9.26;72.41;101157.22;4183619;28;20083;-64
2021/04/20 05:39:47;;;;;;;14.43;9.20;;;9.70;99.90;;;9.26;72.52;101152.78;4167230;28;20084;-64
2021/04/20 05:41:48;;;;;;;12.25;9.88;;;9.80;99.90;;;9.33;72.12;101153.06;4168436;28;20481;-64
2021/04/20 05:43:51;;;;;;;13.35;9.95;;;9.80;99.90;;;9.38;73.20;101159.56;4166961;28;20029;-64
2021/04/20 05:45:52;;;;;;;14.85;11.23;;;9.80;99.90;;;9.42;73.78;101152.25;4166969;28;20036;-64
2021/04/20 05:47:53;;;;;;;13.20;9.65;;;9.90;99.90;;;9.58;70.97;101146.41;4167060;28;20013;-64
2021/04/20 05:50:03;;;;;;;16.63;10.93;;;9.90;99.90;;;9.52;71.95;101152.25;4166915;28;20103;-64
2021/04/20 05:52:05;;;;;;;14.43;9.73;;;9.90;99.90;;;9.52;72.80;101147.81;4166889;28;20034;-64
2021/04/20 05:54:07;;;;;;;15.48;10.23;;;10.00;99.90;;;9.57;73.51;101150.00;4166953;28;20030;-64
2021/04/20 05:56:08;;;;;;;15.48;10.00;;;10.00;99.90;;;9.52;73.62;101146.97;4166935;28;20029;-64
2021/04/20 05:58:10;;;;;;;15.02;10.50;;;10.00;99.90;;;9.48;74.23;101156.94;4166885;28;20037;-64
2021/04/20 06:00:12;;;;;;;11.43;9.70;;;10.00;99.90;;;9.48;74.95;101145.59;4166853;28;20030;-64
2021/04/20 06:02:15;;;;;;;15.23;9.88;;;10.10;99.90;;;9.62;73.99;101159.16;4170804;28;20057;-64
2021/04/20 06:04:17;;;;;;;14.23;10.25;;;10.10;99.90;;;9.66;73.80;101152.66;4170078;28;20032;-64
2021/04/20 06:06:21;;;;;;;14.52;9.60;;;10.20;99.90;;;9.78;74.06;101159.44;4163082;28;20033;-64
2021/04/20 06:08:23;;;;;;;11.48;9.73;;;10.30;99.90;;;9.80;74.52;101160.13;4170081;28;20024;-64
2021/04/20 06:10:25;;;;;;;11.45;10.15;;;10.30;99.90;;;9.85;74.59;101160.53;4169929;28;20041;-64
2021/04/20 06:12:26;;;;;;;14.15;9.75;;;10.40;99.90;;;9.88;75.50;101160.25;4159758;28;20104;-64
2021/04/20 06:14:27;;;;;;;12.25;9.55;;;10.50;99.90;;;9.92;75.16;101161.63;4170122;28;20057;-64
2021/04/20 06:16:28;;;;;;;16.52;9.15;;;10.50;99.90;;;10.00;75.42;101163.56;4170166;28;20030;-64
2021/04/20 06:18:31;;;;;;;12.10;9.02;;;10.50;99.90;;;10.06;75.89;101159.53;4186394;28;20033;-64
2021/04/20 06:20:32;;;;;;;15.23;9.65;;;10.60;99.90;;;10.11;77.29;101165.19;4153017;28;20124;-64
2021/04/20 06:22:35;;;;;;;12.63;10.32;;;10.60;99.90;;;10.06;74.95;101170.91;4153516;28;20030;-64
2021/04/20 06:24:38;;;;;;;15.18;11.18;;;10.60;99.90;;;10.00;74.90;101161.72;4169817;28;20092;-64
2021/04/20 06:26:41;;;;;;;11.35;9.88;;;10.60;99.90;;;9.98;75.05;101166.31;4170073;28;20026;-64
2021/04/20 06:28:42;;;;;;;12.20;9.95;;;10.60;99.90;;;10.02;74.80;101167.72;4171074;28;20025;-64
2021/04/20 06:30:44;;;;;;;13.90;9.52;;;10.60;99.90;;;9.96;75.23;101151.63;4170987;28;20076;-64
2021/04/20 06:32:46;;;;;;;13.70;10.30;;;10.60;99.90;;;10.02;74.85;101162.44;4170952;28;20018;-64
2021/04/20 06:34:47;;;;;;;15.27;10.05;;;10.60;99.90;;;9.98;75.10;101161.06;4168982;28;20049;-64
2021/04/20 06:36:50;;;;;;;12.90;10.88;;;10.60;99.90;;;10.15;74.01;101174.53;4169846;28;20393;-64
2021/04/20 06:38:52;;;;;;;12.38;9.80;;;10.60;99.90;;;10.14;74.67;101164.94;4169707;28;20060;-64
2021/04/20 06:40:55;;;;;;;12.98;9.77;;;10.60;99.90;;;10.20;74.15;101165.19;4169634;28;20029;-64
2021/04/20 06:43:02;;;;;;;15.80;11.00;;;10.70;99.90;;;10.28;74.76;101156.56;4169643;28;20508;-64
2021/04/20 06:45:11;;;;;;;10.77;9.68;;;10.80;99.90;;;10.17;74.36;101159.38;4170906;28;20083;-64
2021/04/20 06:47:30;;;;;;;17.73;10.68;;;10.70;99.90;;;10.22;74.82;101162.41;4153718;28;20061;-64
2021/04/20 06:49:43;;;;;;;15.93;10.98;;;10.80;99.90;;;10.11;75.11;101154.66;4169601;28;20033;-64
2021/04/20 06:51:50;;;;;;;15.73;10.80;;;10.80;99.90;;;10.16;76.30;101155.91;4169694;28;20037;-65
2021/04/20 06:54:18;;;;;;;11.70;9.98;;;10.80;99.90;;;10.38;75.12;101162.66;4169526;28;20072;-64
2021/04/20 06:56:59;;;;;;;15.77;10.73;;;10.90;99.90;;;10.41;74.95;101162.34;4155402;28;20081;-64
2021/04/20 06:59:32;;;;;;;12.57;10.32;;;11.00;99.90;;;10.43;75.93;101158.59;4155887;28;20396;-64
2021/04/20 07:01:44;;;;;;;15.88;9.68;;;11.00;99.90;;;10.45;76.31;101159.28;4170768;28;20032;-64
2021/04/20 07:04:26;;;;;;;16.70;10.98;;;11.10;99.90;;;10.60;76.61;101162.28;4169473;28;20021;-64
2021/04/20 07:06:36;;;;;;;15.43;10.30;;;11.20;99.90;;;10.60;75.89;101156.19;4170583;28;20168;-64
2021/04/20 07:08:54;;;;;;;17.20;11.27;;;11.30;99.90;;;10.64;71.45;101162.81;4168748;28;20036;-65
2021/04/20 07:10:56;;;;;;;14.77;10.88;;;11.50;99.90;;;10.70;72.90;101164.84;4160387;28;20029;-64
2021/04/20 07:13:02;;;;;;;16.23;11.95;;;11.50;99.90;;;10.81;72.50;101162.84;4168772;28;20029;-64
2021/04/20 07:15:05;;;;;;;13.48;9.98;;;11.50;99.90;;;10.84;73.18;101154.63;4169365;28;20404;-64
2021/04/20 07:17:18;;;;;;;12.45;10.48;;;11.60;99.90;;;10.93;73.88;101163.50;4169414;28;20107;-64
2021/04/20 07:19:41;;;;;;;11.70;9.82;;;11.60;99.90;;;11.00;74.97;101161.91;4170186;28;20038;-64
2021/04/20 07:22:03;;;;;;;15.18;10.52;;;11.70;99.90;;;11.05;75.43;101168.41;4170337;28;20021;-64
2021/04/20 07:24:19;;;;;;;16.65;11.27;;;11.70;99.90;;;11.09;75.21;101166.31;4170388;28;20037;-64
2021/04/20 07:26:52;;;;;;;15.30;11.30;;;11.80;99.90;;;11.13;71.88;101156.28;4179576;28;20025;-64
2021/04/20 07:29:28;;;;;;;12.80;9.38;;;11.80;99.90;;;11.22;71.45;101160.66;4177458;28;20040;-64
2021/04/20 07:32:09;;;;;;;14.55;10.60;;;11.90;99.90;;;11.38;71.41;101166.94;4168888;28;20127;-64
2021/04/20 07:34:41;;;;;;;16.98;11.43;;;12.00;99.90;;;11.46;72.25;101167.03;4170161;28;20073;-64
2021/04/20 07:37:35;;;;;;;14.68;9.73;;;12.10;99.90;;;11.53;71.71;101167.22;4169896;28;20076;-64
2021/04/20 07:40:26;;;;;;;13.68;10.73;;;12.20;99.90;;;11.67;69.28;101164.06;4169947;28;20108;-64
2021/04/20 07:43:03;;;;;;;16.05;10.23;;;12.30;99.90;;;11.71;68.03;101159.34;4165677;28;20036;-64
2021/04/20 07:45:14;;;;;;;16.95;10.48;;;12.40;99.90;;;11.79;68.88;101164.69;4168729;28;20500;-64
2021/04/20 07:47:18;;;;;;;13.07;10.18;;;12.50;99.90;;;11.90;69.13;101159.13;4168589;28;20128;-64
2021/04/20 07:49:54;;;;;;;16.67;11.13;;;12.60;99.90;;;11.89;67.72;101163.59;4168566;28;20025;-65
2021/04/20 07:52:19;;;;;;;14.60;9.75;;;12.70;99.90;;;11.98;68.12;101161.84;4152597;28;20032;-65
2021/04/20 07:54:40;;;;;;;14.00;10.98;;;12.80;99.90;;;12.21;66.49;101165.66;4161875;28;20034;-65
2021/04/20 07:56:54;;;;;;;14.98;10.80;;;12.90;99.90;;;12.17;65.34;101151.06;4168054;28;20037;-64
2021/04/20 07:59:02;;;;;;;15.98;11.60;;;13.00;99.90;;;12.15;66.46;101158.34;4166777;28;20036;-64
2021/04/20 08:01:31;;;;;;;13.50;10.32;;;13.00;99.90;;;12.23;66.47;101149.59;4167581;28;20374;-64
2021/04/20 08:03:49;;;;;;;18.38;12.05;;;13.00;99.90;;;12.29;66.29;101157.75;4160069;28;20448;-65
2021/04/20 08:06:00;;;;;;;19.13;11.82;;;13.10;99.90;;;12.14;66.66;101167.25;4167085;28;20037;-65
2021/04/20 08:08:19;;;;;;;19.25;12.40;;;13.10;99.90;;;12.00;66.83;101166.00;4168361;28;20056;-65
2021/04/20 08:10:37;;;;;;;13.75;10.80;;;13.10;99.90;;;12.06;67.80;101161.91;4169138;28;20029;-65
2021/04/20 08:13:16;;;;;;;21.98;12.88;;;13.00;99.90;;;11.97;65.51;101161.03;4152757;28;20044;-65
2021/04/20 08:15:58;;;;;;;20.55;11.40;;;13.00;99.90;;;11.99;64.04;101164.34;4159283;28;20045;-65
2021/04/20 08:18:11;;;;;;;17.20;11.40;;;13.00;99.90;;;11.95;65.18;101159.50;4168780;28;20040;-64
2021/04/20 08:20:20;;;;;;;18.52;11.57;;;13.00;99.90;;;11.97;64.70;101155.75;4167690;28;20029;-64
2021/04/20 08:22:21;;;;;;;18.38;12.07;;;12.90;99.90;;;12.06;64.23;101160.09;4167734;28;20026;-65
2021/04/20 08:24:31;;;;;;;19.33;12.45;;;12.90;99.90;;;12.12;65.22;101161.28;4167427;28;20029;-65
2021/04/20 08:26:47;;;;;;;16.88;13.30;;;13.00;99.90;;;11.95;64.91;101157.69;4163450;28;20029;-64
2021/04/20 08:29:17;;;;;;;19.30;12.32;;;13.00;99.90;;;12.15;65.31;101163.63;4167377;28;20048;-64
2021/04/20 08:31:40;;;;;;;17.92;12.23;;;13.00;99.90;;;12.14;65.69;101165.44;4168158;28;20524;-64
2021/04/20 08:33:45;;;;;;;23.20;12.50;;;13.10;99.90;;;12.40;64.93;101161.94;4168430;28;20037;-64
2021/04/20 08:35:53;;;;;;;21.60;12.55;;;13.20;99.90;;;12.43;64.14;101164.25;4166976;28;20417;-66
2021/04/20 08:38:11;;;;;;;27.85;12.70;;;13.40;99.90;;;12.50;64.83;101160.84;4167335;28;20031;-64
2021/04/20 08:40:25;;;;;;;17.90;11.55;;;13.50;99.90;;;12.56;64.46;101159.38;4168649;28;20034;-64
2021/04/20 08:42:41;;;;;;;21.70;11.05;;;13.60;99.90;;;12.79;64.12;101168.41;4168641;28;20427;-64
2021/04/20 08:45:19;;;;;;;19.90;12.27;;;13.80;99.90;;;12.84;63.90;101155.53;4167181;28;20404;-64
2021/04/20 08:48:03;;;;;;;23.17;12.32;;;13.90;99.90;;;12.90;64.03;101162.84;4166920;28;20029;-64
2021/04/20 08:50:14;;;;;;;17.30;11.88;;;14.00;99.90;;;13.18;63.92;101161.59;4161375;28;20033;-64